Latest Coastal Weather Observations for Low Head

IDT60701

Issued at 7:32 pm EDT Tuesday 12 December 2017 (issued every 10 minutes, with the page automatically refreshed every 10 minutes)

About coastal observations | Map of coastal stations | Coastal observations for TAS | Marine services | Other Formats
Station Details ID: 091293 Name: LOW HEAD Lat: -41.05 Lon: 146.79 Height: 3.0 m
Data from the previous 72 hours. | See also: Recent months at Low Head
Date/Time
EDT
Temp
°C
Wind Pressure Rain since
9am
mm
Weather Cloud Vis
km
Sea
Height
m
Swell
Dir  Spd
kts
Gust
kts
hPa Trend Height
m
Period
s
Dir
12/07:30pm 17.7 NE 8 8 1013.8 - 0.0 - - - - - - -
12/07:00pm 18.2 NNE 7 8 1013.9 - 0.0 - - - - - - -
12/06:30pm 18.5 NE 6 7 1013.8 - 0.0 - - - - - - -
12/06:00pm 19.1 NNE 4 5 1014.0 - 0.0 - - - - - - -
12/05:30pm 19.6 NW 5 7 1014.1 - 0.0 - - - - - - -
12/05:00pm 19.7 NNW 6 7 1014.2 - 0.0 - - - - - - -
12/04:30pm 19.7 NW 7 9 1014.4 - 0.0 - - - - - - -
12/04:00pm 19.8 NW 8 9 1014.8 - 0.0 - - - - - - -
12/03:30pm 20.5 NW 10 11 1015.0 - 0.0 - - - - - - -
12/03:00pm 19.3 NW 9 11 1015.0 - 0.0 - - - - - - -
12/02:30pm 20.2 NW 9 11 1015.1 - 0.0 - - - - - - -
12/02:00pm 19.1 NNW 9 10 1015.3 - 0.0 - - - - - - -
12/01:30pm 19.2 NNW 9 10 1015.6 - 0.0 - - - - - - -
12/01:00pm 19.2 N 8 9 1015.8 - 0.0 - - - - - - -
12/12:30pm 18.5 NNW 8 9 1016.3 - 0.0 - - - - - - -
12/12:00pm 19.0 N 7 8 1016.3 - 0.0 - - - - - - -
12/11:30am 17.2 N 8 9 1016.2 - 0.0 - - - - - - -
12/11:00am 16.7 N 9 10 1016.2 - 0.0 - - - - - - -
12/10:30am 16.4 NNE 8 10 1016.2 - 0.0 - - - - - - -
12/10:00am 17.0 N 8 9 1016.5 - 0.0 - - - - - - -
12/09:30am 17.0 N 6 7 1016.7 - 0.0 - - - - - - -
12/09:00am 15.9 NNE 7 7 1016.6 - 0.0 - - - - - - -
12/08:30am 16.4 NE 4 5 1016.4 - 0.0 - - - - - - -
12/08:00am 15.6 E 4 5 1016.4 - 0.0 - - - - - - -
12/07:30am 14.8 SSE 2 4 1016.1 - 0.0 - - - - - - -
12/07:00am 14.5 S 3 4 1016.2 - 0.0 - - - - - - -
12/06:30am 13.8 SSE 3 4 1016.1 - 0.0 - - - - - - -
12/06:00am 13.2 ESE 3 5 1015.9 - 0.0 - - - - - - -
12/05:30am 13.3 E 5 7 1015.5 - 0.0 - - - - - - -
12/05:00am 13.3 E 5 6 1015.2 - 0.0 - - - - - - -
12/04:30am 13.4 ESE 5 7 1015.4 - 0.0 - - - - - - -
12/04:00am 13.5 SSE 6 8 1015.4 - 0.0 - - - - - - -
12/03:30am 14.4 ESE 7 9 1015.4 - 0.0 - - - - - - -
12/03:00am 14.5 ESE 7 9 1015.4 - 0.0 - - - - - - -
12/02:30am 14.3 SE 7 9 1015.7 - 0.0 - - - - - - -
12/02:00am 14.1 SE 7 9 1015.7 - 0.0 - - - - - - -
12/01:30am 14.1 SE 8 10 1015.9 - 0.0 - - - - - - -
12/01:00am 14.2 ESE 8 12 1016.0 - 0.0 - - - - - - -
12/12:30am 14.2 ESE 8 11 1016.0 - 0.0 - - - - - - -
12/12:00am 14.0 SE 8 10 1016.0 - 0.0 - - - - - - -
 
Date/Time
EDT
Temp
°C
Wind Pressure Rain since
9am
mm
Weather Cloud Vis
km
Sea
Height
m
Swell
Dir  Spd
kts
Gust
kts
hPa Trend Height
m
Period
s
Dir
11/11:30pm 14.4 ESE 9 12 1016.0 - 0.0 - - - - - - -
11/11:00pm 14.7 E 7 9 1016.0 - 0.0 - - - - - - -
11/10:30pm 16.4 W 8 9 1015.9 - 0.0 - - - - - - -
11/10:00pm 16.6 W 10 11 1015.9 - 0.0 - - - - - - -
11/09:30pm 16.7 W 12 14 1015.5 - 0.0 - - - - - - -
11/09:00pm 17.2 W 13 15 1015.3 - 0.0 - - - - - - -
11/08:30pm 17.8 W 17 19 1015.0 - 0.0 - - - - - - -
11/08:00pm 18.3 WNW 15 19 1014.9 - 0.0 - - - - - - -
11/07:30pm 18.5 NW 16 19 1014.9 - 0.0 - - - - - - -
11/07:00pm 18.6 NW 15 17 1015.1 - 0.0 - - - - - - -
11/06:30pm 18.7 NW 17 20 1015.1 - 0.0 - - - - - - -
11/06:00pm 18.8 NW 19 23 1015.2 - 0.0 - - - - - - -
11/05:30pm 19.2 WNW 20 23 1015.5 - 0.0 - - - - - - -
11/05:00pm 19.4 NW 18 22 1015.6 - 0.0 - - - - - - -
11/04:30pm 19.7 WNW 19 23 1015.7 - 0.0 - - - - - - -
11/04:00pm 20.0 WNW 19 21 1015.9 - 0.0 - - - - - - -
11/03:30pm 19.9 NW 18 22 1016.2 - 0.0 - - - - - - -
11/03:00pm 20.2 WNW 18 21 1016.4 - 0.0 - - - - - - -
11/02:30pm 20.5 WNW 15 17 1016.5 - 0.0 - - - - - - -
11/02:00pm 20.8 WNW 14 17 1016.8 - 0.0 - - - - - - -
11/01:30pm 20.0 WNW 15 18 1017.3 - 0.0 - - - - - - -
11/01:00pm 19.9 WNW 16 19 1017.7 - 0.0 - - - - - - -
11/12:30pm 19.6 WNW 16 18 1017.9 - 0.0 - - - - - - -
11/12:00pm 19.0 WNW 15 17 1018.0 - 0.0 - - - - - - -
11/11:30am 18.8 WNW 13 15 1018.1 - 0.0 - - - - - - -
11/11:00am 18.3 WNW 13 15 1018.4 - 0.0 - - - - - - -
11/10:30am 17.8 WNW 11 13 1018.2 - 0.0 - - - - - - -
11/10:00am 17.2 WNW 11 13 1018.4 - 0.0 - - - - - - -
11/09:30am 16.6 WNW 9 11 1018.4 - 0.0 - - - - - - -
11/09:00am 16.1 WNW 11 12 1018.5 - 0.0 - - - - - - -
11/08:30am 15.5 W 11 13 1018.4 - 0.0 - - - - - - -
11/08:00am 15.2 W 11 14 1018.2 - 0.0 - - - - - - -
11/07:30am 15.2 W 12 14 1017.9 - 0.0 - - - - - - -
11/07:00am 15.1 W 15 17 1017.8 - 0.0 - - - - - - -
11/06:30am 15.1 W 16 18 1017.5 - 0.0 - - - - - - -
11/06:00am 14.8 W 17 19 1017.4 - 0.0 - - - - - - -
11/05:30am 14.8 W 17 19 1017.2 - 0.0 - - - - - - -
11/05:00am 14.8 W 17 20 1017.0 - 0.0 - - - - - - -
11/04:30am 15.0 W 17 19 1016.9 - 0.0 - - - - - - -
11/04:00am 14.8 W 16 17 1017.0 - 0.0 - - - - - - -
11/03:30am 14.8 W 17 19 1017.0 - 0.0 - - - - - - -
11/03:00am 15.0 W 17 20 1017.2 - 0.0 - - - - - - -
11/02:30am 15.2 W 18 21 1017.4 - 0.0 - - - - - - -
11/02:00am 15.4 W 17 19 1017.5 - 0.0 - - - - - - -
11/01:30am 15.3 W 18 20 1017.6 - 0.0 - - - - - - -
11/01:00am 15.6 W 20 23 1018.1 - 0.0 - - - - - - -
11/12:30am 15.9 W 19 23 1018.3 - 0.0 - - - - - - -
11/12:00am 15.9 W 21 24 1018.3 - 0.0 - - - - - - -
 
Date/Time
EDT
Temp
°C
Wind Pressure Rain since
9am
mm
Weather Cloud Vis
km
Sea
Height
m
Swell
Dir  Spd
kts
Gust
kts
hPa Trend Height
m
Period
s
Dir
10/11:30pm 16.2 W 20 24 1018.2 - 0.0 - - - - - - -
10/11:00pm 16.4 W 20 23 1018.1 - 0.0 - - - - - - -
10/10:30pm 16.5 W 17 19 1018.2 - 0.0 - - - - - - -
10/10:00pm 16.7 W 19 24 1018.0 - 0.0 - - - - - - -
10/09:30pm 17.0 W 19 22 1017.9 - 0.0 - - - - - - -
10/09:00pm 17.1 WNW 18 20 1017.7 - 0.0 - - - - - - -
10/08:30pm 17.3 WNW 20 24 1017.5 - 0.0 - - - - - - -
10/08:00pm 17.5 WNW 21 25 1017.3 - 0.0 - - - - - - -
10/07:30pm 17.9 WNW 23 27 1017.1 - 0.0 - - - - - - -
10/07:00pm 18.1 WNW 23 27 1016.6 - 0.0 - - - - - - -
10/06:30pm 18.5 WNW 24 29 1016.4 - 0.0 - - - - - - -
10/06:00pm 18.5 WNW 25 31 1016.5 - 0.0 - - - - - - -
10/05:30pm 18.6 WNW 26 30 1016.4 - 0.0 - - - - - - -
10/05:00pm 18.9 WNW 25 31 1016.4 - 0.0 - - - - - - -
10/04:30pm 19.0 NW 24 28 1016.7 - 0.0 - - - - - - -
10/04:00pm 19.0 NW 25 30 1016.8 - 0.0 - - - - - - -
10/03:30pm 19.1 NW 25 31 1016.9 - 0.0 - - - - - - -
10/03:00pm 19.2 NW 25 30 1017.1 - 0.0 - - - - - - -
10/02:30pm 19.3 NW 24 28 1017.3 - 0.0 - - - - - - -
10/02:00pm 19.3 NW 24 29 1017.6 - 0.0 - - - - - - -
10/01:30pm 19.0 NW 24 28 1017.7 - 0.0 - - - - - - -
10/01:00pm 19.3 NW 24 28 1017.9 - 0.0 - - - - - - -
10/12:30pm 19.2 NW 23 28 1018.1 - 0.0 - - - - - - -
10/12:00pm 19.2 WNW 22 25 1018.1 - 0.0 - - - - - - -
10/11:30am 18.5 WNW 22 25 1018.2 - 0.0 - - - - - - -
10/11:00am 18.5 WNW 21 24 1018.4 - 0.0 - - - - - - -
10/10:30am 18.2 WNW 20 23 1018.5 - 0.0 - - - - - - -
10/10:00am 17.7 WNW 19 22 1018.6 - 0.0 - - - - - - -
10/09:30am 17.2 WNW 19 23 1018.6 - 0.0 - - - - - - -
10/09:00am 17.1 WNW 17 21 1018.6 - 0.0 - - - - - - -
10/08:30am 16.8 WNW 17 20 1018.7 - 0.0 - - - - - - -
10/08:00am 16.5 WNW 18 23 1018.3 - 0.0 - - - - - - -
10/07:30am 16.0 WNW 21 24 1018.2 - 0.0 - - - - - - -
10/07:00am 15.8 WNW 22 25 1018.0 - 0.0 - - - - - - -
10/06:30am 15.7 WNW 21 24 1018.0 - 0.0 - - - - - - -
10/06:00am 15.5 WNW 19 23 1017.7 - 0.0 - - - - - - -
10/05:30am 15.5 WNW 21 24 1017.5 - 0.0 - - - - - - -
10/05:00am 15.6 WNW 21 25 1017.4 - 0.0 - - - - - - -
10/04:30am 15.7 W 24 27 1017.4 - 0.0 - - - - - - -
10/04:00am 15.6 WNW 23 26 1017.3 - 0.0 - - - - - - -
10/03:30am 15.6 WNW 21 24 1017.4 - 0.0 - - - - - - -
10/03:00am 15.5 W 20 23 1017.4 - 0.0 - - - - - - -
10/02:30am 15.5 WNW 19 22 1017.6 - 0.0 - - - - - - -
10/02:00am 15.7 WNW 18 21 1017.8 - 0.0 - - - - - - -
10/01:30am 15.7 W 17 21 1017.9 - 0.0 - - - - - - -
10/01:00am 15.8 W 19 22 1017.8 - 0.0 - - - - - - -
10/12:30am 15.8 W 21 25 1017.9 - 0.0 - - - - - - -
10/12:00am 16.1 W 21 24 1018.0 - 0.0 - - - - - - -
 
Date/Time
EDT
Temp
°C
Wind Pressure Rain since
9am
mm
Weather Cloud Vis
km
Sea
Height
m
Swell
Dir  Spd
kts
Gust
kts
hPa Trend Height
m
Period
s
Dir
09/11:30pm 16.3 W 21 24 1018.0 - 0.0 - - - - - - -
09/11:00pm 16.5 W 20 25 1017.9 - 0.0 - - - - - - -
09/10:30pm 16.7 W 23 26 1017.7 - 0.0 - - - - - - -
09/10:00pm 16.9 W 19 21 1017.7 - 0.0 - - - - - - -
09/09:30pm 17.1 W 16 19 1017.3 - 0.0 - - - - - - -
09/09:00pm 17.1 WSW 17 21 1016.8 - 0.0 - - - - - - -
09/08:30pm 17.3 WSW 18 21 1016.5 - 0.0 - - - - - - -
09/08:00pm 17.7 WSW 18 20 1016.3 - 0.0 - - - - - - -

Other Formats:

Comma delimited format used in spreadsheet applications
http://www.bom.gov.au/fwo/IDT60701/IDT60701.95964.axf

JavaScript Object Notation format (JSON) in row-major order
http://www.bom.gov.au/fwo/IDT60701/IDT60701.95964.json